»·PEaware :: SWA976 KMSY-KMCO

SWA976 :: KMSY-KMCO

FLIGHT INFORMATION

Flight Status: Arrived
Operator:
Southwest Airlines
More flights by this operator :: More flights under this callsign
Pilot: Anonymous 14085 (14085)
Aircraft: BOEING 737-300
(B733)
More flights by this aircraft type
Origin: KMSY Armstrong New Orleans Intl
United States
Destination: KMCO Orlando Intl
United States
More flights between these airports :: More routes between these airports
Route: REDFN Q100 REMIS BOXFR COSTR3
File this flight plan on PilotEdge
Remarks:
Altitude:
(Current/Filed)
35,000ft
Speed:
(Current/Filed)
450kts
Departed: 30-May-17 09:36 PM
Arrived: 30-May-17 10:56 PM
Distance/Time
Traveled:
478nm/1:20
Distance/Time
To Go:
Arrived

Flight Plot

Page will automatically refresh every two minutes.

Flight plan parsing failed; only flown route is shown


Map Options




Map Legend


Flown Route
Filed Route
Departure Airport
Arrival Airport
Navaid (VOR, NDB)
Fix

Horizontal Profiles

Position Reports

Time Latitude Longitude Heading Altitude Ground
Speed
30-May-17 21:27 29.984640 -90.254344 305 10ft 0kts
30-May-17 21:28 29.984640 -90.254344 305 10ft 0kts
30-May-17 21:29 29.984640 -90.254344 305 10ft 0kts
30-May-17 21:30 29.984640 -90.254344 305 10ft 0kts
30-May-17 21:31 29.984640 -90.254344 305 10ft 0kts
30-May-17 21:32 29.984366 -90.253903 305 10ft 0kts
30-May-17 21:33 29.984284 -90.253769 305 10ft 0kts
30-May-17 21:34 29.984875 -90.252391 98 10ft 0kts
30-May-17 21:35 29.984938 -90.251276 16 10ft 0kts
30-May-17 21:36 29.984940 -90.251275 16 10ft 0kts
30-May-17 21:37 29.984940 -90.251275 16 10ft 0kts
30-May-17 21:38 29.997463 -90.247324 15 27ft 163kts
30-May-17 21:39 30.042663 -90.217632 79 2468ft 243kts
30-May-17 21:40 29.992707 -90.179671 175 5985ft 271kts
30-May-17 21:41 29.927088 -90.142371 128 9647ft 286kts
30-May-17 21:42 29.871375 -90.062596 129 11831ft 349kts
30-May-17 21:43 29.808598 -89.974501 129 15038ft 366kts
30-May-17 21:44 29.742617 -89.882281 129 17940ft 382kts
30-May-17 21:45 29.673702 -89.786196 129 20603ft 398kts
30-May-17 21:46 29.602325 -89.686915 129 23006ft 413kts
30-May-17 21:47 29.527802 -89.583521 129 25222ft 427kts
30-May-17 21:48 29.451127 -89.477413 129 27234ft 440kts
30-May-17 21:49 29.372305 -89.368626 129 29378ft 444kts
30-May-17 21:50 29.294539 -89.261337 129 31708ft 438kts
30-May-17 21:51 29.217002 -89.154863 129 33714ft 434kts
30-May-17 21:52 29.140018 -89.049438 129 35029ft 438kts
30-May-17 21:53 29.061682 -88.942446 129 35001ft 437kts
30-May-17 21:54 28.985354 -88.834890 115 34982ft 437kts
30-May-17 21:55 28.986582 -88.699421 94 35023ft 438kts
30-May-17 21:56 28.972384 -88.561881 96 35000ft 437kts
30-May-17 21:57 28.958556 -88.424157 96 35002ft 438kts
30-May-17 21:58 28.944856 -88.288678 96 34995ft 437kts
30-May-17 21:59 28.930793 -88.151094 96 35002ft 438kts
30-May-17 22:00 28.916574 -88.013448 96 35001ft 438kts
30-May-17 22:01 28.902208 -87.875783 96 35001ft 438kts
30-May-17 22:02 28.887409 -87.737973 96 35001ft 438kts
30-May-17 22:03 28.872737 -87.600290 96 35001ft 438kts
30-May-17 22:04 28.857940 -87.462646 96 35001ft 438kts
30-May-17 22:05 28.843126 -87.326117 97 34963ft 438kts
30-May-17 22:06 28.828038 -87.188200 97 35003ft 438kts
30-May-17 22:07 28.813090 -87.051593 95 34988ft 441kts
30-May-17 22:08 28.802968 -86.908163 94 34956ft 463kts
30-May-17 22:09 28.791833 -86.760864 94 34953ft 471kts
30-May-17 22:10 28.780411 -86.612044 94 34952ft 473kts
30-May-17 22:11 28.768811 -86.463074 94 34951ft 473kts
30-May-17 22:12 28.757072 -86.314336 95 34917ft 474kts
30-May-17 22:13 28.745178 -86.165653 95 34952ft 473kts
30-May-17 22:14 28.733042 -86.016238 95 34952ft 474kts
30-May-17 22:15 28.720769 -85.867393 95 34952ft 474kts
30-May-17 22:16 28.708404 -85.721047 95 35031ft 447kts
30-May-17 22:17 28.696796 -85.584046 95 34992ft 437kts
30-May-17 22:18 28.684972 -85.446139 95 35002ft 438kts
30-May-17 22:19 28.673204 -85.310376 95 34977ft 438kts
30-May-17 22:20 28.661138 -85.172761 95 35003ft 438kts
30-May-17 22:21 28.648906 -85.035041 95 35001ft 438kts
30-May-17 22:22 28.636560 -84.897649 95 35001ft 438kts
30-May-17 22:23 28.626190 -84.783462 95 35001ft 438kts
30-May-17 22:24 28.611456 -84.623022 95 35001ft 438kts
30-May-17 22:25 28.598708 -84.485877 95 34975ft 442kts
30-May-17 22:26 28.587672 -84.368353 95 35007ft 450kts
30-May-17 22:27 28.572085 -84.203946 96 35002ft 449kts
30-May-17 22:28 28.558546 -84.063078 96 35001ft 449kts
30-May-17 22:29 28.544861 -83.922242 96 35001ft 449kts
30-May-17 22:30 28.533319 -83.804635 96 35001ft 449kts
30-May-17 22:31 28.517007 -83.640203 96 35001ft 449kts
30-May-17 22:32 28.505257 -83.523010 96 35001ft 449kts
30-May-17 22:33 28.490978 -83.381955 96 35001ft 449kts
30-May-17 22:34 28.477899 -83.253786 96 34459ft 445kts
30-May-17 22:35 28.461135 -83.091556 96 30165ft 460kts
30-May-17 22:36 28.448904 -82.974406 96 28069ft 438kts
30-May-17 22:37 28.434882 -82.841263 96 25774ft 416kts
30-May-17 22:38 28.421351 -82.713972 96 23676ft 396kts
30-May-17 22:39 28.408371 -82.592926 96 21678ft 379kts
30-May-17 22:40 28.395671 -82.475481 96 19297ft 372kts
30-May-17 22:41 28.383309 -82.362062 96 17394ft 353kts
30-May-17 22:42 28.371785 -82.256913 97 15846ft 330kts
30-May-17 22:43 28.360591 -82.155653 97 14105ft 321kts
30-May-17 22:44 28.349568 -82.056667 97 12316ft 314kts
30-May-17 22:45 28.338686 -81.959591 97 10536ft 307kts
30-May-17 22:46 28.328314 -81.867620 97 9428ft 287kts
30-May-17 22:47 28.318246 -81.778920 97 8035ft 280kts
30-May-17 22:48 28.308386 -81.692546 97 6648ft 275kts
30-May-17 22:49 28.298638 -81.607632 97 5584ft 270kts
30-May-17 22:50 28.289124 -81.525183 97 4438ft 261kts
30-May-17 22:51 28.279837 -81.445141 97 3404ft 244kts
30-May-17 22:52 28.271490 -81.373511 97 2820ft 215kts
30-May-17 22:53 28.280094 -81.313741 54 2305ft 167kts
30-May-17 22:54 28.315867 -81.293707 2 1969ft 155kts
30-May-17 22:55 28.356362 -81.295202 357 1130ft 146kts
30-May-17 22:56 28.397783 -81.295518 359 329ft 146kts
30-May-17 22:57 28.425561 -81.295776 359 103ft 48kts
30-May-17 22:58 28.434389 -81.297766 269 103ft 24kts
30-May-17 22:59 28.435092 -81.300402 260 103ft 0kts

Navigation Log

Ident Type
Flight plan parsing failed, navigation log unavailable